Time;durP1;ratioP1;P1;durP2;ratioP2;P2;SDS_P1;SDS_P2;PMS_P1;PMS_P2;Temp;Humidity;BMP_temperature;BMP_pressure;BME280_temperature;BME280_humidity;BME280_pressure;Samples;Min_cycle;Max_cycle;Signal;HPM_P1;HPM_P2
2022/11/07 04:49:16;;;;;;;;;;;;;;;12.07;68.64;97120.69;4214461;27;10384;-64
2022/11/07 04:51:21;;;;;;;;;;;;;;;12.35;67.95;97123.31;4212283;28;5709;-64
2022/11/07 04:53:24;;;;;;;;;;;;;;;12.56;67.69;97111.75;4203465;28;5949;-64
2022/11/07 04:55:29;;;;;;;;;;;;;;;12.75;66.95;97108.38;4201897;28;5911;-64
2022/11/07 04:57:32;;;;;;;;;;;;;;;12.90;66.85;97102.88;4200885;28;5937;-64
2022/11/07 04:59:35;;;;;;;;;;;;;;;13.02;66.48;97113.75;4201786;28;5879;-64
2022/11/07 05:01:37;;;;;;;;;;;;;;;13.09;66.15;97104.78;4210102;28;5785;-64
2022/11/07 05:03:40;;;;;;;;;;;;;;;13.17;65.77;97103.78;4214265;28;5701;-64
2022/11/07 05:05:45;;;;;;;;;;;;;;;13.24;65.66;97112.59;4202406;28;5793;-65
2022/11/07 05:07:48;;;;;;;;;;;;;;;13.29;65.42;97109.34;4210762;28;5772;-65
2022/11/07 05:09:51;;;;;;;;;;;;;;;13.33;65.20;97106.06;4207287;28;5836;-64
2022/11/07 05:11:54;;;;;;;;;;;;;;;13.38;64.82;97119.56;4214159;28;5652;-65
2022/11/07 05:13:56;;;;;;;;;;;;;;;13.42;64.87;97119.16;4214136;28;5773;-64
2022/11/07 05:15:59;;;;;;;;;;;;;;;13.44;64.47;97117.94;4214316;28;5693;-64
2022/11/07 05:18:02;;;;;;;;;;;;;;;13.46;64.23;97123.03;4214270;28;5666;-64
2022/11/07 05:20:05;;;;;;;;;;;;;;;13.48;64.43;97123.66;4214320;28;5087;-64
2022/11/07 05:24:31;;;;;;;;;;;;;;;13.53;64.13;97126.53;4213992;28;5984;-65
2022/11/07 05:26:33;;;;;;;;;;;;;;;13.54;63.80;97130.81;4213283;28;5691;-65
2022/11/07 05:28:36;;;;;;;;;;;;;;;13.57;63.71;97127.75;4214158;28;5697;-65
2022/11/07 05:30:42;;;;;;;;;;;;;;;13.56;63.58;97136.75;4213805;28;5820;-65
2022/11/07 05:32:45;;;;;;;;;;;;;;;13.57;63.52;97125.09;4211508;28;5952;-65
2022/11/07 05:34:49;;;;;;;;;;;;;;;13.56;63.47;97126.13;4207827;28;6012;-65
2022/11/07 05:36:52;;;;;;;;;;;;;;;13.55;63.05;97129.78;4201130;28;5517;-65
2022/11/07 05:38:56;;;;;;;;;;;;;;;13.58;62.82;97130.19;4201639;28;7291;-65
2022/11/07 05:41:02;;;;;;;;;;;;;;;13.59;62.92;97128.34;4210115;28;5708;-67
2022/11/07 05:43:07;;;;;;;;;;;;;;;13.59;62.69;97131.00;4204234;28;5735;-65
2022/11/07 05:45:10;;;;;;;;;;;;;;;13.59;62.78;97136.31;4210514;28;5690;-65
2022/11/07 05:47:13;;;;;;;;;;;;;;;13.58;62.43;97129.38;4202708;28;5801;-66
2022/11/07 05:49:16;;;;;;;;;;;;;;;13.60;62.40;97130.03;4202534;28;5703;-65
2022/11/07 05:51:19;;;;;;;;;;;;;;;13.60;62.04;97127.38;4195235;28;5780;-65
2022/11/07 05:53:23;;;;;;;;;;;;;;;13.55;62.30;97129.78;4196345;28;5719;-65
2022/11/07 05:55:27;;;;;;;;;;;;;;;13.53;61.98;97131.84;4192688;28;5928;-65
2022/11/07 05:57:30;;;;;;;;;;;;;;;13.54;62.16;97138.78;4195128;28;5681;-65
2022/11/07 05:59:33;;;;;;;;;;;;;;;13.54;61.89;97139.59;4196818;28;5694;-65
2022/11/07 06:01:36;;;;;;;;;;;;;;;13.54;61.58;97142.25;4194821;28;5989;-65
2022/11/07 06:03:39;;;;;;;;;;;;;;;13.54;61.67;97144.09;4194385;28;5689;-65
2022/11/07 06:05:43;;;;;;;;;;;;;;;13.52;61.78;97141.66;4195785;28;5833;-65
2022/11/07 06:07:45;;;;;;;;;;;;;;;13.52;61.62;97154.13;4198225;28;5845;-65
2022/11/07 06:09:48;;;;;;;;;;;;;;;13.51;61.60;97157.78;4192667;28;5678;-65
2022/11/07 06:11:52;;;;;;;;;;;;;;;13.49;61.15;97160.66;4195362;28;5849;-65
2022/11/07 06:13:55;;;;;;;;;;;;;;;13.51;61.00;97165.75;4191591;28;5785;-65
2022/11/07 06:15:58;;;;;;;;;;;;;;;13.50;60.97;97169.44;4198871;28;5686;-65
2022/11/07 06:18:01;;;;;;;;;;;;;;;13.48;61.08;97167.00;4197930;28;5777;-65
2022/11/07 06:20:04;;;;;;;;;;;;;;;13.46;61.20;97161.03;4196730;28;5991;-65
2022/11/07 06:22:07;;;;;;;;;;;;;;;13.46;60.77;97162.88;4198049;28;5809;-65
2022/11/07 06:24:10;;;;;;;;;;;;;;;13.47;60.85;97169.81;4196064;28;5851;-65
2022/11/07 06:26:17;;;;;;;;;;;;;;;13.45;60.74;97171.88;4192812;28;5689;-65
2022/11/07 06:28:21;;;;;;;;;;;;;;;13.46;60.83;97173.50;4193720;28;5905;-66
2022/11/07 06:30:23;;;;;;;;;;;;;;;13.47;60.93;97188.41;4195933;28;5780;-66
2022/11/07 06:32:27;;;;;;;;;;;;;;;13.48;60.54;97177.63;4200490;28;5762;-66
2022/11/07 06:34:30;;;;;;;;;;;;;;;13.46;60.38;97178.81;4196130;28;5682;-62
2022/11/07 06:36:33;;;;;;;;;;;;;;;13.46;60.78;97189.44;4202037;28;5669;-62
2022/11/07 06:38:36;;;;;;;;;;;;;;;13.48;60.50;97187.38;4201586;28;5793;-62
2022/11/07 06:40:39;;;;;;;;;;;;;;;13.48;60.63;97190.91;4202153;28;5702;-62
2022/11/07 06:42:42;;;;;;;;;;;;;;;13.50;60.48;97193.34;4201794;28;5741;-63
2022/11/07 06:44:46;;;;;;;;;;;;;;;13.48;60.58;97188.25;4199161;28;5820;-62
2022/11/07 06:46:49;;;;;;;;;;;;;;;13.48;60.18;97182.06;4201853;28;5682;-62
2022/11/07 06:48:53;;;;;;;;;;;;;;;13.48;60.45;97182.06;4200115;28;5742;-63
2022/11/07 06:50:59;;;;;;;;;;;;;;;13.50;60.17;97191.50;4201798;28;5762;-62
2022/11/07 06:53:03;;;;;;;;;;;;;;;13.50;60.41;97186.19;4201705;28;5799;-63
2022/11/07 06:55:06;;;;;;;;;;;;;;;13.52;60.40;97193.97;4199377;28;6586;-62
2022/11/07 06:57:09;;;;;;;;;;;;;;;13.53;60.04;97187.63;4198396;28;5699;-62
2022/11/07 06:59:12;;;;;;;;;;;;;;;13.54;60.31;97192.72;4185527;28;5770;-62
2022/11/07 07:01:16;;;;;;;;;;;;;;;13.56;59.93;97197.84;4195733;28;5681;-63
2022/11/07 07:03:19;;;;;;;;;;;;;;;13.56;59.95;97200.50;4201514;28;5708;-62
2022/11/07 07:05:22;;;;;;;;;;;;;;;13.58;60.24;97211.72;4201537;28;5674;-63
2022/11/07 07:07:25;;;;;;;;;;;;;;;13.57;60.13;97208.25;4200582;28;5698;-63
2022/11/07 07:09:28;;;;;;;;;;;;;;;13.58;60.14;97217.03;4201318;28;5673;-63
2022/11/07 07:11:36;;;;;;;;;;;;;;;13.58;59.92;97209.88;4201453;28;6539;-63
2022/11/07 07:13:39;;;;;;;;;;;;;;;13.61;60.03;97214.00;4201500;28;6426;-63
2022/11/07 07:15:51;;;;;;;;;;;;;;;13.62;59.85;97218.28;4196323;28;5981;-63
2022/11/07 07:17:59;;;;;;;;;;;;;;;13.63;59.97;97222.59;4197075;28;5692;-63
2022/11/07 07:20:02;;;;;;;;;;;;;;;13.63;59.75;97222.59;4198084;28;6646;-63
2022/11/07 07:22:11;;;;;;;;;;;;;;;13.65;59.89;97225.84;4200784;28;5788;-62
2022/11/07 07:24:14;;;;;;;;;;;;;;;13.65;59.90;97221.34;4193996;28;5723;-62
2022/11/07 07:26:18;;;;;;;;;;;;;;;13.68;59.61;97220.13;4198730;28;5718;-63
2022/11/07 07:28:21;;;;;;;;;;;;;;;13.70;59.54;97228.72;4200160;28;5685;-63
2022/11/07 07:30:24;;;;;;;;;;;;;;;13.72;59.48;97220.56;4200952;28;5702;-63
2022/11/07 07:32:27;;;;;;;;;;;;;;;13.72;59.60;97229.34;4201210;28;6101;-63
2022/11/07 07:34:31;;;;;;;;;;;;;;;13.73;59.63;97228.31;4201062;28;7097;-63
2022/11/07 07:36:34;;;;;;;;;;;;;;;13.75;59.56;97228.13;4194623;28;5788;-62
2022/11/07 07:38:39;;;;;;;;;;;;;;;13.71;59.37;97218.94;4198020;28;6635;-63
2022/11/07 07:40:42;;;;;;;;;;;;;;;13.77;59.16;97234.84;4195057;28;7207;-62
2022/11/07 07:42:46;;;;;;;;;;;;;;;13.80;59.32;97238.94;4185758;28;5849;-62
2022/11/07 07:44:49;;;;;;;;;;;;;;;13.80;59.28;97241.59;4197473;28;5685;-62
2022/11/07 07:46:52;;;;;;;;;;;;;;;13.82;59.20;97242.25;4194888;28;5762;-62
2022/11/07 07:48:55;;;;;;;;;;;;;;;13.83;59.09;97235.91;4189315;28;5815;-62
2022/11/07 07:51:00;;;;;;;;;;;;;;;13.85;58.91;97236.50;4190404;28;5690;-64
2022/11/07 07:53:04;;;;;;;;;;;;;;;13.86;58.94;97231.00;4184961;28;5723;-62
2022/11/07 07:55:11;;;;;;;;;;;;;;;13.87;58.83;97229.97;4184162;28;5718;-62
2022/11/07 07:57:15;;;;;;;;;;;;;;;13.88;58.87;97226.28;4199378;28;5864;-62
2022/11/07 07:59:18;;;;;;;;;;;;;;;13.91;58.87;97228.53;4194473;28;5929;-62
2022/11/07 08:01:21;;;;;;;;;;;;;;;13.93;58.71;97234.50;4183984;28;5718;-63
2022/11/07 08:03:24;;;;;;;;;;;;;;;13.96;58.42;97234.06;4190294;28;5682;-62
2022/11/07 08:05:37;;;;;;;;;;;;;;;13.97;58.33;97240.22;4191125;28;5722;-62
2022/11/07 08:07:49;;;;;;;;;;;;;;;13.99;58.33;97238.16;4193052;28;5694;-63
2022/11/07 08:09:52;;;;;;;;;;;;;;;14.00;58.29;97237.13;4188239;28;5498;-62
2022/11/07 08:11:55;;;;;;;;;;;;;;;14.03;58.44;97239.38;4183537;28;7721;-62
2022/11/07 08:14:00;;;;;;;;;;;;;;;14.05;58.31;97236.53;4189778;28;5714;-62
2022/11/07 08:16:09;;;;;;;;;;;;;;;14.08;58.44;97225.50;4190898;28;5769;-62
2022/11/07 08:18:12;;;;;;;;;;;;;;;14.09;58.15;97222.63;4199993;28;5690;-62
2022/11/07 08:20:17;;;;;;;;;;;;;;;14.12;58.23;97216.06;4194713;28;5816;-62
2022/11/07 08:22:21;;;;;;;;;;;;;;;14.14;57.91;97214.84;4191605;28;6629;-63
2022/11/07 08:24:26;;;;;;;;;;;;;;;14.16;57.96;97220.78;4198030;28;6462;-62
2022/11/07 08:26:29;;;;;;;;;;;;;;;14.20;57.78;97218.53;4199705;28;5685;-62
2022/11/07 08:28:34;;;;;;;;;;;;;;;14.22;57.93;97216.47;4197203;28;5812;-62
2022/11/07 08:30:37;;;;;;;;;;;;;;;14.22;57.96;97213.81;4195085;28;5694;-63
2022/11/07 08:32:40;;;;;;;;;;;;;;;14.25;58.08;97219.53;4200111;28;5776;-63
2022/11/07 08:34:42;;;;;;;;;;;;;;;14.25;57.75;97216.88;4196878;28;5682;-63
2022/11/07 08:36:45;;;;;;;;;;;;;;;14.27;57.87;97220.16;4195202;28;5690;-63
2022/11/07 08:38:48;;;;;;;;;;;;;;;14.28;58.10;97221.00;4184003;28;5840;-63
2022/11/07 08:40:54;;;;;;;;;;;;;;;14.30;57.98;97221.59;4200547;28;5702;-63
2022/11/07 08:43:00;;;;;;;;;;;;;;;14.32;57.96;97221.38;4195936;28;5816;-63
2022/11/07 08:45:03;;;;;;;;;;;;;;;14.34;58.02;97220.16;4183816;28;5699;-62
2022/11/07 08:47:07;;;;;;;;;;;;;;;14.35;57.74;97227.09;4183257;28;5812;-62
2022/11/07 08:49:11;;;;;;;;;;;;;;;14.35;57.63;97220.97;4184546;28;5772;-63
2022/11/07 08:51:14;;;;;;;;;;;;;;;14.35;57.75;97224.44;4187069;28;5814;-62
2022/11/07 08:53:19;;;;;;;;;;;;;;;14.36;57.60;97223.41;4191895;28;5693;-62
2022/11/07 08:55:23;;;;;;;;;;;;;;;14.39;57.64;97231.00;4199254;28;5773;-62
2022/11/07 08:57:29;;;;;;;;;;;;;;;14.41;57.52;97236.94;4199799;28;5724;-62
2022/11/07 08:59:32;;;;;;;;;;;;;;;14.43;57.70;97231.41;4198713;28;5706;-63
2022/11/07 09:01:35;;;;;;;;;;;;;;;14.45;57.27;97238.19;4189650;28;5749;-62
2022/11/07 09:03:58;;;;;;;;;;;;;;;14.46;57.32;97234.47;4187951;28;5718;-62
2022/11/07 09:06:05;;;;;;;;;;;;;;;14.47;57.36;97229.97;4183303;28;5722;-62
2022/11/07 09:08:08;;;;;;;;;;;;;;;14.47;57.51;97227.31;4198629;28;6492;-62
2022/11/07 09:10:11;;;;;;;;;;;;;;;14.49;57.30;97217.28;4199219;28;5679;-63
2022/11/07 09:12:14;;;;;;;;;;;;;;;14.51;57.14;97225.91;4199682;28;5749;-62
2022/11/07 09:14:18;;;;;;;;;;;;;;;14.51;57.14;97225.91;4187589;28;5819;-63
2022/11/07 09:16:23;;;;;;;;;;;;;;;14.51;57.04;97229.38;4198413;28;6399;-62
2022/11/07 09:18:26;;;;;;;;;;;;;;;14.54;56.85;97228.13;4199544;28;5706;-62
2022/11/07 09:20:29;;;;;;;;;;;;;;;14.54;56.82;97223.63;4193343;28;5810;-63
2022/11/07 09:22:32;;;;;;;;;;;;;;;14.55;56.73;97219.94;4183552;28;5885;-62
2022/11/07 09:24:35;;;;;;;;;;;;;;;14.55;56.62;97217.28;4195786;28;5701;-62
2022/11/07 09:26:38;;;;;;;;;;;;;;;14.56;56.88;97218.91;4190121;28;5691;-63
2022/11/07 09:28:41;;;;;;;;;;;;;;;14.59;56.88;97216.88;4202716;28;5697;-62
2022/11/07 09:30:54;;;;;;;;;;;;;;;14.61;56.40;97220.13;4203141;28;5686;-62
2022/11/07 09:32:57;;;;;;;;;;;;;;;14.61;56.40;97220.97;4201008;28;6369;-62
2022/11/07 09:35:00;;;;;;;;;;;;;;;14.63;56.48;97212.78;4202455;28;5785;-63
2022/11/07 09:37:07;;;;;;;;;;;;;;;14.63;56.17;97208.28;4196140;28;5934;-62
2022/11/07 09:39:09;;;;;;;;;;;;;;;14.65;56.18;97211.53;4202232;28;5816;-62
2022/11/07 09:41:29;;;;;;;;;;;;;;;14.65;56.28;97211.53;4200861;28;5709;-62
2022/11/07 09:43:55;;;;;;;;;;;;;;;14.68;56.00;97212.97;4202764;28;5812;-62
2022/11/07 09:46:07;;;;;;;;;;;;;;;14.71;55.84;97209.88;4202346;28;5686;-62
2022/11/07 09:48:21;;;;;;;;;;;;;;;14.74;55.72;97204.16;4201918;28;5701;-62
2022/11/07 09:50:31;;;;;;;;;;;;;;;14.74;55.84;97202.31;4195921;28;5694;-62
2022/11/07 09:52:41;;;;;;;;;;;;;;;14.74;55.81;97209.47;4192272;28;5737;-62
2022/11/07 09:54:50;;;;;;;;;;;;;;;14.76;55.63;97202.91;4186094;28;6134;-62
2022/11/07 09:56:56;;;;;;;;;;;;;;;14.77;55.54;97206.38;4185645;28;5719;-62
2022/11/07 09:59:05;;;;;;;;;;;;;;;14.80;55.74;97205.97;4192347;28;5701;-62
2022/11/07 10:01:19;;;;;;;;;;;;;;;14.79;55.28;97201.66;4200533;28;5876;-63
2022/11/07 10:03:22;;;;;;;;;;;;;;;14.81;55.29;97204.94;4197314;28;5722;-62
2022/11/07 10:05:36;;;;;;;;;;;;;;;14.81;55.30;97202.28;4193997;28;5864;-63
2022/11/07 10:07:46;;;;;;;;;;;;;;;14.84;55.37;97208.00;4185306;28;5722;-62
2022/11/07 10:09:58;;;;;;;;;;;;;;;14.85;54.98;97209.66;4185276;28;5843;-62
2022/11/07 10:12:11;;;;;;;;;;;;;;;14.87;54.93;97212.09;4193989;28;5889;-62
2022/11/07 10:14:23;;;;;;;;;;;;;;;14.89;54.87;97204.72;4202140;28;5759;-62
2022/11/07 10:16:42;;;;;;;;;;;;;;;14.88;54.70;97205.75;4202094;28;5756;-62
2022/11/07 10:18:58;;;;;;;;;;;;;;;14.90;54.92;97209.00;4185237;28;5809;-62
2022/11/07 10:21:09;;;;;;;;;;;;;;;14.91;54.71;97212.47;4186479;28;5714;-63
2022/11/07 10:23:49;;;;;;;;;;;;;;;14.91;54.77;97215.97;4199506;28;5836;-63
2022/11/07 10:25:59;;;;;;;;;;;;;;;14.91;54.61;97215.97;4193294;28;5697;-62
2022/11/07 10:28:13;;;;;;;;;;;;;;;14.90;54.81;97209.00;4201269;28;5694;-62
2022/11/07 10:30:19;;;;;;;;;;;;;;;14.91;54.67;97204.50;4201992;28;5761;-62
2022/11/07 10:32:36;;;;;;;;;;;;;;;14.90;54.81;97203.69;4201166;28;5116;-62
2022/11/07 10:34:44;;;;;;;;;;;;;;;14.93;54.75;97208.56;4202090;28;5691;-62
2022/11/07 10:36:53;;;;;;;;;;;;;;;14.96;54.62;97207.34;4186124;28;5718;-62
2022/11/07 10:38:57;;;;;;;;;;;;;;;14.95;54.65;97201.22;4185102;28;5774;-62
2022/11/07 10:41:00;;;;;;;;;;;;;;;14.95;54.41;97206.53;4185190;28;5805;-62
2022/11/07 10:43:08;;;;;;;;;;;;;;;14.98;54.34;97207.97;4184938;28;5742;-63
2022/11/07 10:45:13;;;;;;;;;;;;;;;14.98;54.58;97199.97;4190635;28;5764;-62
2022/11/07 10:47:17;;;;;;;;;;;;;;;15.00;54.04;97200.56;4185096;28;5889;-62
2022/11/07 10:49:23;;;;;;;;;;;;;;;15.03;54.15;97194.81;4191930;28;5914;-62
2022/11/07 10:51:37;;;;;;;;;;;;;;;15.04;54.02;97193.78;4196544;28;5876;-62
2022/11/07 10:53:44;;;;;;;;;;;;;;;15.05;53.78;97185.59;4201406;28;5859;-62
2022/11/07 10:55:48;;;;;;;;;;;;;;;15.07;53.76;97191.53;4191176;28;5780;-62
2022/11/07 10:57:54;;;;;;;;;;;;;;;15.08;53.85;97185.19;4200667;28;5844;-62
2022/11/07 11:02:45;;;;;;;;;;;;;;;15.10;53.72;97177.78;4191701;28;5731;-62
2022/11/07 11:04:52;;;;;;;;;;;;;;;15.12;53.61;97170.41;4199720;28;5686;-62
2022/11/07 11:07:02;;;;;;;;;;;;;;;15.13;53.53;97171.22;4201667;28;5820;-62
2022/11/07 11:09:14;;;;;;;;;;;;;;;15.11;53.41;97168.78;4190592;28;5742;-62
2022/11/07 11:11:27;;;;;;;;;;;;;;;15.13;53.35;97165.91;4185116;28;5813;-62
2022/11/07 11:13:31;;;;;;;;;;;;;;;15.15;53.18;97169.16;4185221;28;5706;-62
2022/11/07 11:15:43;;;;;;;;;;;;;;;15.17;53.18;97168.94;4185034;28;6163;-62
2022/11/07 11:17:55;;;;;;;;;;;;;;;15.18;53.00;97162.63;4184961;28;5734;-62
2022/11/07 11:20:00;;;;;;;;;;;;;;;15.21;52.97;97157.66;4192523;28;5852;-62
2022/11/07 11:22:10;;;;;;;;;;;;;;;15.23;52.83;97160.13;4185242;28;6760;-62
2022/11/07 11:24:22;;;;;;;;;;;;;;;15.23;52.76;97154.78;4184714;28;5785;-63
2022/11/07 11:26:29;;;;;;;;;;;;;;;15.22;52.81;97153.16;4184691;28;5718;-62
2022/11/07 11:28:38;;;;;;;;;;;;;;;15.21;52.67;97155.00;4184787;28;5726;-62
2022/11/07 11:30:41;;;;;;;;;;;;;;;15.23;52.87;97146.78;4184708;28;5872;-62
2022/11/07 11:32:50;;;;;;;;;;;;;;;15.24;52.65;97140.44;4196868;28;5689;-62
2022/11/07 11:35:00;;;;;;;;;;;;;;;15.25;52.68;97142.06;4187318;28;5875;-62
2022/11/07 11:37:10;;;;;;;;;;;;;;;15.26;52.36;97143.69;4190597;28;5762;-62
2022/11/07 11:39:25;;;;;;;;;;;;;;;15.25;52.56;97137.56;4200496;28;5749;-62
2022/11/07 11:41:36;;;;;;;;;;;;;;;15.29;52.45;97136.13;4199352;28;5884;-62
2022/11/07 11:43:43;;;;;;;;;;;;;;;15.30;52.27;97131.59;4185592;28;5972;-62
2022/11/07 11:46:04;;;;;;;;;;;;;;;15.29;52.26;97133.47;4190942;28;5738;-62
2022/11/07 11:48:20;;;;;;;;;;;;;;;15.30;52.26;97128.94;4198739;28;5781;-62
2022/11/07 11:50:32;;;;;;;;;;;;;;;15.34;52.02;97124.81;4186032;28;5723;-62
2022/11/07 11:52:36;;;;;;;;;;;;;;;15.35;52.09;97121.09;4194652;28;5675;-62
2022/11/07 11:54:39;;;;;;;;;;;;;;;15.35;51.97;97116.59;4200471;28;5685;-62
2022/11/07 11:56:51;;;;;;;;;;;;;;;15.36;52.05;97120.06;4186297;28;5767;-62
2022/11/07 11:59:06;;;;;;;;;;;;;;;15.37;51.90;97109.19;4185471;28;5897;-62
2022/11/07 12:01:20;;;;;;;;;;;;;;;15.41;51.98;97104.28;4196014;28;5714;-62
2022/11/07 12:03:39;;;;;;;;;;;;;;;15.43;51.75;97100.34;4185901;28;5710;-62
2022/11/07 12:06:11;;;;;;;;;;;;;;;15.45;51.34;97094.81;4184172;28;5718;-62
2022/11/07 12:08:26;;;;;;;;;;;;;;;15.45;51.70;97092.16;4191672;28;5869;-62
2022/11/07 12:10:40;;;;;;;;;;;;;;;15.44;51.76;97093.19;4194418;28;6398;-62
2022/11/07 12:12:56;;;;;;;;;;;;;;;15.46;51.50;97095.63;4193963;28;5681;-63
2022/11/07 12:15:28;;;;;;;;;;;;;;;15.47;51.59;97091.94;4199070;28;5720;-63
2022/11/07 12:17:39;;;;;;;;;;;;;;;15.49;51.47;97090.66;4193481;28;5864;-62
2022/11/07 12:19:50;;;;;;;;;;;;;;;15.52;51.46;97089.44;4198352;28;5951;-62
2022/11/07 12:22:06;;;;;;;;;;;;;;;15.53;51.45;97088.41;4196831;28;5817;-62
2022/11/07 12:24:21;;;;;;;;;;;;;;;15.52;51.40;97082.25;4200239;28;5697;-63
2022/11/07 12:26:29;;;;;;;;;;;;;;;15.55;51.31;97086.34;4192404;28;5706;-62
2022/11/07 12:28:45;;;;;;;;;;;;;;;15.56;51.38;97080.78;4196697;28;5865;-63
2022/11/07 12:30:57;;;;;;;;;;;;;;;15.58;51.15;97078.72;4192878;28;5738;-62
2022/11/07 12:33:12;;;;;;;;;;;;;;;15.59;51.32;97077.69;4190253;28;5134;-62
2022/11/07 12:35:32;;;;;;;;;;;;;;;15.60;51.32;97063.34;4192724;28;5721;-62
2022/11/07 12:37:57;;;;;;;;;;;;;;;15.59;51.33;97061.69;4194723;28;5777;-62
2022/11/07 12:40:21;;;;;;;;;;;;;;;15.62;51.16;97061.28;4193651;28;5843;-62
2022/11/07 12:42:37;;;;;;;;;;;;;;;15.65;51.16;97063.53;4192340;28;5960;-62
2022/11/07 12:44:59;;;;;;;;;;;;;;;15.64;51.31;97063.75;4189199;28;5811;-62
2022/11/07 12:47:12;;;;;;;;;;;;;;;15.64;51.11;97059.25;4198197;28;5863;-63
2022/11/07 12:49:50;;;;;;;;;;;;;;;15.67;51.11;97048.13;4197749;28;5750;-63
2022/11/07 12:52:00;;;;;;;;;;;;;;;15.70;50.96;97038.88;4198645;28;5732;-62
2022/11/07 12:54:20;;;;;;;;;;;;;;;15.71;50.96;97045.84;4192539;28;5864;-63
2022/11/07 12:56:31;;;;;;;;;;;;;;;15.73;51.04;97044.56;4187122;28;5863;-64
2022/11/07 12:58:37;;;;;;;;;;;;;;;15.72;50.92;97037.63;4192676;28;5697;-63
2022/11/07 13:00:41;;;;;;;;;;;;;;;15.76;50.98;97047.84;4199720;28;5805;-63
2022/11/07 13:02:58;;;;;;;;;;;;;;;15.77;51.04;97046.81;4199474;28;5804;-63
2022/11/07 13:05:16;;;;;;;;;;;;;;;15.80;51.23;97041.03;4199655;28;5916;-64
2022/11/07 13:07:26;;;;;;;;;;;;;;;15.79;51.17;97045.56;4202631;28;5972;-63
2022/11/07 13:09:35;;;;;;;;;;;;;;;15.79;50.98;97032.22;4190683;28;5818;-63
2022/11/07 13:11:47;;;;;;;;;;;;;;;15.81;51.14;97037.34;4192169;28;5689;-63
2022/11/07 13:14:02;;;;;;;;;;;;;;;15.81;51.05;97032.00;4188268;28;5115;-63
2022/11/07 13:16:06;;;;;;;;;;;;;;;15.81;51.12;97035.50;4196390;28;7867;-63
2022/11/07 13:18:20;;;;;;;;;;;;;;;15.82;51.28;97036.31;4201943;28;5788;-63
2022/11/07 13:20:26;;;;;;;;;;;;;;;15.82;51.16;97030.97;4196167;28;6515;-63
2022/11/07 13:22:34;;;;;;;;;;;;;;;15.79;51.22;97036.75;4187792;28;5851;-62
2022/11/07 13:24:49;;;;;;;;;;;;;;;15.78;51.19;97027.94;4195702;28;5694;-63
2022/11/07 13:26:56;;;;;;;;;;;;;;;15.80;51.00;97033.84;4200808;28;5766;-63
2022/11/07 13:29:04;;;;;;;;;;;;;;;15.82;51.12;97025.63;4200927;28;5824;-63
2022/11/07 13:31:35;;;;;;;;;;;;;;;15.83;51.00;97025.41;4198323;28;5827;-63
2022/11/07 13:33:38;;;;;;;;;;;;;;;15.84;50.89;97019.03;4199822;28;5815;-63
2022/11/07 13:35:41;;;;;;;;;;;;;;;15.83;50.84;97024.59;4193380;28;5794;-63
2022/11/07 13:37:46;;;;;;;;;;;;;;;15.83;50.95;97016.59;4206223;28;6970;-62
2022/11/07 13:39:54;;;;;;;;;;;;;;;15.85;50.82;97017.19;4199841;28;5742;-62
2022/11/07 13:42:00;;;;;;;;;;;;;;;15.86;50.81;97016.19;4197929;28;5705;-63
2022/11/07 13:44:06;;;;;;;;;;;;;;;15.86;50.81;97010.84;4199426;28;6033;-63
2022/11/07 13:46:19;;;;;;;;;;;;;;;15.86;50.70;97022.31;4190119;28;5745;-63
2022/11/07 13:48:25;;;;;;;;;;;;;;;15.86;50.85;97010.84;4192197;28;6416;-62
2022/11/07 13:50:37;;;;;;;;;;;;;;;15.88;50.85;97019.44;4197216;28;5892;-63
2022/11/07 13:52:48;;;;;;;;;;;;;;;15.89;50.81;97013.06;4197614;28;5693;-63
2022/11/07 13:54:57;;;;;;;;;;;;;;;15.90;51.04;97014.69;4201722;28;6400;-63
2022/11/07 13:57:05;;;;;;;;;;;;;;;15.89;50.90;97007.75;4194064;28;5757;-62
2022/11/07 13:59:14;;;;;;;;;;;;;;;15.88;50.79;97003.44;4198599;28;5671;-63
2022/11/07 14:01:17;;;;;;;;;;;;;;;15.89;50.89;97005.88;4199727;28;5702;-63
2022/11/07 14:03:26;;;;;;;;;;;;;;;15.90;50.96;97001.38;4187251;28;5849;-62
2022/11/07 14:05:35;;;;;;;;;;;;;;;15.91;50.85;97003.00;4198951;28;5829;-62
2022/11/07 14:07:41;;;;;;;;;;;;;;;15.91;50.92;97003.81;4189371;28;6399;-62
2022/11/07 14:09:47;;;;;;;;;;;;;;;15.91;50.78;97003.81;4201456;28;5693;-63
2022/11/07 14:11:53;;;;;;;;;;;;;;;15.92;50.59;97008.09;4196971;28;5893;-62
2022/11/07 14:13:57;;;;;;;;;;;;;;;15.92;50.61;97001.94;4199537;28;5817;-62
2022/11/07 14:16:03;;;;;;;;;;;;;;;15.92;50.78;96997.44;4197147;28;5770;-62
2022/11/07 14:18:06;;;;;;;;;;;;;;;15.92;50.92;96991.28;4198778;28;5789;-63
2022/11/07 14:20:15;;;;;;;;;;;;;;;15.93;50.94;96990.25;4201133;28;5777;-62
2022/11/07 14:22:22;;;;;;;;;;;;;;;15.93;50.78;96990.25;4190925;28;5831;-62
2022/11/07 14:24:28;;;;;;;;;;;;;;;15.92;50.81;96993.94;4201896;28;5690;-62
2022/11/07 14:26:31;;;;;;;;;;;;;;;15.92;51.05;96988.63;4198352;28;6038;-62
2022/11/07 14:28:35;;;;;;;;;;;;;;;15.92;50.78;96991.28;4201539;28;5699;-62
2022/11/07 14:30:42;;;;;;;;;;;;;;;15.89;51.05;96992.56;4200846;28;5864;-62
2022/11/07 14:32:49;;;;;;;;;;;;;;;15.89;50.90;96989.88;4197807;28;5847;-62
2022/11/07 14:34:54;;;;;;;;;;;;;;;15.90;50.81;96990.69;4194545;28;5702;-62
2022/11/07 14:36:59;;;;;;;;;;;;;;;15.88;51.10;96988.25;4198659;28;5114;-62
2022/11/07 14:39:06;;;;;;;;;;;;;;;15.89;50.94;96981.06;4198048;28;5796;-62
2022/11/07 14:41:17;;;;;;;;;;;;;;;15.88;51.12;96984.78;4197539;28;5839;-62
2022/11/07 14:43:23;;;;;;;;;;;;;;;15.87;51.07;96981.31;4208605;28;5690;-63
2022/11/07 14:45:27;;;;;;;;;;;;;;;15.86;51.05;96987.66;4193243;28;5697;-62
2022/11/07 14:47:53;;;;;;;;;;;;;;;15.88;51.14;96977.59;4194390;28;5819;-63
2022/11/07 14:49:56;;;;;;;;;;;;;;;15.89;51.23;96981.06;4208357;28;5698;-63
2022/11/07 14:52:00;;;;;;;;;;;;;;;15.92;51.09;96983.28;4197041;28;5844;-63
2022/11/07 14:54:09;;;;;;;;;;;;;;;15.93;51.15;96975.06;4198147;28;5697;-63
2022/11/07 14:56:17;;;;;;;;;;;;;;;15.94;51.26;96973.22;4197498;28;5901;-62
2022/11/07 14:58:22;;;;;;;;;;;;;;;15.94;51.37;96973.22;4199959;28;6408;-62
2022/11/07 15:00:25;;;;;;;;;;;;;;;15.95;51.11;96977.50;4187072;28;5715;-63
2022/11/07 15:02:31;;;;;;;;;;;;;;;15.93;51.20;96974.25;4201756;28;5693;-63
2022/11/07 15:04:39;;;;;;;;;;;;;;;15.92;51.52;96984.09;4198188;28;5691;-64
2022/11/07 15:06:44;;;;;;;;;;;;;;;15.93;51.47;96979.59;4201723;28;5694;-63
2022/11/07 15:08:56;;;;;;;;;;;;;;;15.92;51.37;96977.97;4188037;28;6355;-64
2022/11/07 15:11:01;;;;;;;;;;;;;;;15.93;51.17;96976.91;4189844;28;5777;-64
2022/11/07 15:13:05;;;;;;;;;;;;;;;15.93;51.57;96972.41;4193381;28;5776;-63
2022/11/07 15:15:20;;;;;;;;;;;;;;;15.92;51.46;96977.97;4201370;28;5805;-64
2022/11/07 15:17:26;;;;;;;;;;;;;;;15.91;51.37;96971.81;4189743;28;6300;-62
2022/11/07 15:19:31;;;;;;;;;;;;;;;15.89;51.66;96973.88;4190205;28;5802;-63
2022/11/07 15:21:38;;;;;;;;;;;;;;;15.88;51.56;96971.44;4196176;28;5698;-63
2022/11/07 15:23:41;;;;;;;;;;;;;;;15.87;51.69;96969.81;4201274;28;5718;-63
2022/11/07 15:25:53;;;;;;;;;;;;;;;15.86;51.81;96966.34;4200885;28;5718;-62
2022/11/07 15:27:56;;;;;;;;;;;;;;;15.88;51.58;96960.78;4193592;28;5741;-63
2022/11/07 15:30:00;;;;;;;;;;;;;;;15.88;51.47;96963.44;4193783;28;5764;-62
2022/11/07 15:32:13;;;;;;;;;;;;;;;15.88;51.60;96960.78;4200710;28;5847;-63
2022/11/07 15:34:18;;;;;;;;;;;;;;;15.87;51.81;96959.97;4188335;28;5694;-63
2022/11/07 15:36:42;;;;;;;;;;;;;;;15.86;51.60;96957.53;4197989;28;5828;-62
2022/11/07 15:38:45;;;;;;;;;;;;;;;15.84;51.82;96962.25;4195391;28;5747;-63
2022/11/07 15:40:50;;;;;;;;;;;;;;;15.84;51.81;96957.72;4200239;28;5828;-62
2022/11/07 15:42:53;;;;;;;;;;;;;;;15.84;51.96;96962.25;4199220;28;5698;-62
2022/11/07 15:44:56;;;;;;;;;;;;;;;15.84;52.03;96963.06;4194982;28;6590;-62
2022/11/07 15:46:59;;;;;;;;;;;;;;;15.85;51.83;96955.88;4191550;28;5801;-62
2022/11/07 15:49:02;;;;;;;;;;;;;;;15.83;52.06;96958.78;4191529;28;5857;-64
2022/11/07 15:51:05;;;;;;;;;;;;;;;15.83;52.04;96955.28;4191546;28;5094;-64
2022/11/07 15:53:15;;;;;;;;;;;;;;;15.83;51.94;96960.63;4192063;28;5875;-64
2022/11/07 15:55:22;;;;;;;;;;;;;;;15.83;51.90;96963.28;4197243;28;5690;-64
2022/11/07 15:57:25;;;;;;;;;;;;;;;15.81;52.18;96960.03;4190158;28;5922;-64
2022/11/07 15:59:32;;;;;;;;;;;;;;;15.81;52.25;96955.50;4193946;28;5828;-64
2022/11/07 16:01:34;;;;;;;;;;;;;;;15.80;52.14;96955.75;4192124;28;6397;-64
2022/11/07 16:03:38;;;;;;;;;;;;;;;15.79;52.28;96951.44;4195368;28;5935;-64
2022/11/07 16:05:41;;;;;;;;;;;;;;;15.78;52.16;96952.50;4192655;28;6526;-64